createdAt,value
2022-12-25T00:00:36.559Z,101218.91
2022-12-25T00:03:03.113Z,101214.09
2022-12-25T00:05:29.629Z,101215.09
2022-12-25T00:07:56.139Z,101209.00
2022-12-25T00:10:22.730Z,101217.41
2022-12-25T00:12:49.687Z,101217.78
2022-12-25T00:15:16.274Z,101200.53
2022-12-25T00:17:42.866Z,101209.19
2022-12-25T00:20:10.077Z,101198.16
2022-12-25T00:22:36.525Z,101192.09
2022-12-25T00:25:03.178Z,101188.38
2022-12-25T00:27:33.744Z,101190.22
2022-12-25T00:30:01.579Z,101200.59
2022-12-25T00:32:28.197Z,101208.22
2022-12-25T00:34:54.654Z,101194.78
2022-12-25T00:37:21.275Z,101196.63
2022-12-25T00:39:49.297Z,101182.63
2022-12-25T00:42:18.862Z,101186.72
2022-12-25T00:44:46.435Z,101182.19
2022-12-25T00:47:13.223Z,101187.41
2022-12-25T00:49:39.727Z,101182.91
2022-12-25T00:52:06.624Z,101182.91
2022-12-25T00:54:33.199Z,101185.31
2022-12-25T00:56:59.661Z,101195.75
2022-12-25T00:59:26.189Z,101188.28
2022-12-25T01:01:52.784Z,101192.38
2022-12-25T01:04:19.467Z,101190.13
2022-12-25T01:06:45.849Z,101190.44
2022-12-25T01:09:30.702Z,101190.28
2022-12-25T01:11:57.177Z,101195.66
2022-12-25T01:14:23.603Z,101185.34
2022-12-25T01:16:50.101Z,101186.91
2022-12-25T01:19:16.680Z,101192.59
2022-12-25T01:21:43.137Z,101200.50
2022-12-25T01:24:09.570Z,101204.75
2022-12-25T01:26:36.058Z,101205.34
2022-12-25T01:29:02.605Z,101217.25
2022-12-25T01:31:29.094Z,101209.59
2022-12-25T01:33:55.624Z,101206.06
2022-12-25T01:36:26.175Z,101208.59
2022-12-25T01:38:53.948Z,101207.34
2022-12-25T01:41:22.947Z,101214.28
2022-12-25T01:44:18.840Z,101208.75
2022-12-25T01:46:45.877Z,101202.66
2022-12-25T01:49:15.792Z,101205.50
2022-12-25T01:51:50.306Z,101193.72
2022-12-25T01:54:34.603Z,101208.03
2022-12-25T01:57:05.610Z,101211.59
2022-12-25T01:59:32.309Z,101209.06
2022-12-25T02:02:00.690Z,101209.06
2022-12-25T02:04:38.847Z,101215.00
2022-12-25T02:07:06.835Z,101216.13
2022-12-25T02:09:33.413Z,101212.56
2022-12-25T02:12:00.511Z,101214.81
2022-12-25T02:14:29.761Z,101214.97
2022-12-25T02:17:19.357Z,101218.53
2022-12-25T02:20:21.292Z,101211.44
2022-12-25T02:23:09.178Z,101213.16
2022-12-25T02:25:35.628Z,101211.16
2022-12-25T02:28:19.826Z,101197.69
2022-12-25T02:30:52.262Z,101199.53
2022-12-25T02:33:57.251Z,101191.47
2022-12-25T02:36:29.489Z,101192.59
2022-12-25T02:39:18.789Z,101206.91
2022-12-25T02:41:47.838Z,101216.22
2022-12-25T02:44:38.214Z,101215.69
2022-12-25T02:47:26.316Z,101210.41
2022-12-25T02:50:13.331Z,101201.50
2022-12-25T02:53:00.704Z,101197.13
2022-12-25T02:55:53.552Z,101187.06
2022-12-25T02:58:42.588Z,101177.00
2022-12-25T03:01:33.634Z,101175.72
2022-12-25T03:04:24.290Z,101178.81
2022-12-25T03:07:03.529Z,101183.06
2022-12-25T03:10:10.841Z,101172.03
2022-12-25T03:12:50.609Z,101154.50
2022-12-25T03:15:37.613Z,101154.06
2022-12-25T03:18:10.117Z,101141.03
2022-12-25T03:20:56.393Z,101136.22
2022-12-25T03:23:47.517Z,101130.81
2022-12-25T03:26:32.905Z,101129.97
2022-12-25T03:28:59.417Z,101123.34
2022-12-25T03:31:53.650Z,101131.25
2022-12-25T03:34:56.849Z,101134.22
2022-12-25T03:38:09.396Z,101127.97
2022-12-25T03:41:17.472Z,101133.66
2022-12-25T03:44:09.991Z,101124.88
2022-12-25T03:47:09.652Z,101125.13
2022-12-25T03:50:09.100Z,101120.22
2022-12-25T03:52:55.655Z,101123.03
2022-12-25T03:55:42.694Z,101133.94
2022-12-25T03:58:43.069Z,101121.19
2022-12-25T04:01:28.794Z,101127.97
2022-12-25T04:04:13.826Z,101123.03
2022-12-25T04:06:59.052Z,101123.88
2022-12-25T04:09:44.665Z,101128.28
2022-12-25T04:12:29.904Z,101127.44
2022-12-25T04:15:14.735Z,101136.75
2022-12-25T04:17:59.850Z,101129.69
2022-12-25T04:20:44.944Z,101136.91
2022-12-25T04:23:30.103Z,101139.44
2022-12-25T04:26:18.013Z,101141.59
2022-12-25T04:29:02.872Z,101146.00
2022-12-25T04:31:47.744Z,101140.72
2022-12-25T04:34:32.730Z,101147.66
2022-12-25T04:36:59.162Z,101147.13
2022-12-25T04:39:25.745Z,101145.56
2022-12-25T04:41:52.170Z,101137.59
2022-12-25T04:44:18.638Z,101134.81
2022-12-25T04:46:45.160Z,101140.72
2022-12-25T04:49:11.580Z,101140.19
2022-12-25T04:51:38.138Z,101128.81
2022-12-25T04:54:04.745Z,101129.53
2022-12-25T04:56:31.136Z,101129.81
2022-12-25T04:58:57.583Z,101133.22
2022-12-25T05:01:24.141Z,101132.66
2022-12-25T05:03:50.804Z,101131.66
2022-12-25T05:06:17.367Z,101127.28
2022-12-25T05:08:43.873Z,101120.34
2022-12-25T05:11:13.392Z,101118.19
2022-12-25T05:13:40.267Z,101126.56
2022-12-25T05:16:09.509Z,101114.25
2022-12-25T05:18:35.971Z,101110.72
2022-12-25T05:21:02.966Z,101095.97
2022-12-25T05:23:29.454Z,101088.03
2022-12-25T05:25:55.999Z,101089.88
2022-12-25T05:28:22.424Z,101084.09
2022-12-25T05:30:49.036Z,101088.59
2022-12-25T05:33:15.524Z,101089.72
2022-12-25T05:35:42.045Z,101089.56
2022-12-25T05:38:08.754Z,101086.19
2022-12-25T05:40:40.071Z,101083.91
2022-12-25T05:43:07.413Z,101079.50
2022-12-25T05:45:33.946Z,101084.63
2022-12-25T05:48:00.455Z,101091.13
2022-12-25T05:50:26.964Z,101073.88
2022-12-25T05:52:53.405Z,101069.47
2022-12-25T05:55:19.858Z,101066.22
2022-12-25T05:57:46.328Z,101076.56
2022-12-25T06:00:13.008Z,101065.38
2022-12-25T06:02:39.757Z,101077.38
2022-12-25T06:05:06.763Z,101075.38
2022-12-25T06:07:33.169Z,101069.88
2022-12-25T06:09:59.616Z,101061.38
2022-12-25T06:12:26.052Z,101065.91
2022-12-25T06:14:52.425Z,101057.56
2022-12-25T06:17:18.921Z,101063.91
2022-12-25T06:19:45.442Z,101044.13
2022-12-25T06:22:11.847Z,101044.41
2022-12-25T06:24:38.548Z,101040.16
2022-12-25T06:27:05.008Z,101056.44
2022-12-25T06:29:31.409Z,101060.53
2022-12-25T06:31:59.027Z,101062.78
2022-12-25T06:34:25.904Z,101065.47
2022-12-25T06:36:52.398Z,101062.19
2022-12-25T06:39:19.151Z,101056.84
2022-12-25T06:41:45.612Z,101043.84
2022-12-25T06:44:12.119Z,101033.22
2022-12-25T06:46:38.813Z,101046.66
2022-12-25T06:49:05.603Z,101040.75
2022-12-25T06:51:32.624Z,101034.78
2022-12-25T06:53:59.935Z,101030.53
2022-12-25T06:56:27.894Z,101030.84
2022-12-25T06:58:56.542Z,101017.41
2022-12-25T07:01:24.720Z,101007.09
2022-12-25T07:03:54.813Z,101011.88
2022-12-25T07:06:21.563Z,101005.38
2022-12-25T07:08:48.135Z,100999.00
2022-12-25T07:11:14.791Z,100994.06
2022-12-25T07:13:41.387Z,100990.09
2022-12-25T07:16:08.132Z,101005.53
2022-12-25T07:18:35.333Z,101006.09
2022-12-25T07:21:13.126Z,101010.03
2022-12-25T07:23:40.268Z,101006.25
2022-12-25T07:26:07.354Z,101024.19
2022-12-25T07:28:34.264Z,101030.31
2022-12-25T07:31:09.784Z,101025.19
2022-12-25T07:33:36.452Z,101023.47
2022-12-25T07:36:05.361Z,101021.66
2022-12-25T07:38:32.747Z,101026.75
2022-12-25T07:40:59.358Z,101025.78
2022-12-25T07:43:25.940Z,101034.13
2022-12-25T07:45:57.628Z,101030.72
2022-12-25T07:48:27.779Z,101021.69
2022-12-25T07:50:58.997Z,101028.63
2022-12-25T07:53:26.232Z,101037.81
2022-12-25T07:55:57.398Z,101029.91
2022-12-25T07:58:24.275Z,101033.97
2022-12-25T08:00:50.944Z,101023.50
2022-12-25T08:03:17.845Z,101024.50
2022-12-25T08:05:44.669Z,101025.47
2022-12-25T08:08:11.094Z,101030.59
2022-12-25T08:10:37.623Z,101045.75
2022-12-25T08:13:07.642Z,101052.69
2022-12-25T08:15:37.291Z,101053.94
2022-12-25T08:18:03.727Z,101045.59
2022-12-25T08:20:30.159Z,101048.16
2022-12-25T08:22:56.701Z,101057.91
2022-12-25T08:25:23.116Z,101065.00
2022-12-25T08:27:49.551Z,101072.06
2022-12-25T08:30:16.082Z,101058.91
2022-12-25T08:32:42.565Z,101054.25
2022-12-25T08:35:09.259Z,101051.13
2022-12-25T08:37:35.797Z,101051.38
2022-12-25T08:40:02.292Z,101050.41
2022-12-25T08:42:28.754Z,101046.59
2022-12-25T08:44:55.214Z,101037.50
2022-12-25T08:47:21.697Z,101043.63
2022-12-25T08:49:48.107Z,101038.34
2022-12-25T08:52:15.401Z,101033.56
2022-12-25T08:54:41.886Z,101035.97
2022-12-25T08:57:08.344Z,101041.75
2022-12-25T08:59:34.859Z,101047.00
2022-12-25T09:02:01.426Z,101047.28
2022-12-25T09:04:28.236Z,101026.91
2022-12-25T09:06:54.908Z,101033.13
2022-12-25T09:09:21.321Z,101038.22
2022-12-25T09:11:49.036Z,101024.91
2022-12-25T09:14:15.416Z,101027.16
2022-12-25T09:16:42.023Z,101027.72
2022-12-25T09:19:08.433Z,101026.19
2022-12-25T09:21:36.868Z,101038.06
2022-12-25T09:24:04.626Z,101042.59
2022-12-25T09:26:31.060Z,101033.84
2022-12-25T09:28:57.544Z,101034.69
2022-12-25T09:31:24.389Z,101038.34
2022-12-25T09:33:51.458Z,101039.22
2022-12-25T09:36:21.291Z,101049.00
2022-12-25T09:38:47.726Z,101053.53
2022-12-25T09:41:26.907Z,101059.44
2022-12-25T09:43:58.800Z,101054.50
2022-12-25T09:46:34.805Z,101054.50
2022-12-25T09:49:12.221Z,101044.16
2022-12-25T09:51:42.468Z,101030.16
2022-12-25T09:54:27.242Z,101036.09
2022-12-25T09:56:53.725Z,101024.34
2022-12-25T09:59:27.415Z,101027.72
2022-12-25T10:02:25.151Z,101016.41
2022-12-25T10:05:26.391Z,101005.50
2022-12-25T10:07:55.851Z,101010.44
2022-12-25T10:10:40.959Z,101021.22
2022-12-25T10:13:30.768Z,101021.38
2022-12-25T10:16:17.916Z,101008.88
2022-12-25T10:18:44.739Z,101008.47
2022-12-25T10:21:14.531Z,101006.53
2022-12-25T10:23:45.926Z,100999.16
2022-12-25T10:26:18.453Z,100994.91
2022-12-25T10:28:47.636Z,100991.34
2022-12-25T10:31:26.348Z,100993.06
2022-12-25T10:33:54.045Z,100995.59
2022-12-25T10:36:24.097Z,100989.34
2022-12-25T10:38:51.297Z,100985.13
2022-12-25T10:42:07.796Z,100987.66
2022-12-25T10:44:34.847Z,100997.97
2022-12-25T10:47:03.687Z,100993.59
2022-12-25T10:49:36.827Z,100984.13
2022-12-25T10:52:04.516Z,100989.34
2022-12-25T10:54:36.102Z,100982.56
2022-12-25T10:57:13.452Z,100962.56
2022-12-25T10:59:44.294Z,100965.13
2022-12-25T11:02:24.988Z,100964.56
2022-12-25T11:05:01.609Z,100953.69
2022-12-25T11:07:28.591Z,100952.53
2022-12-25T11:10:04.730Z,100934.25
2022-12-25T11:12:38.294Z,100926.19
2022-12-25T11:15:27.360Z,100916.41
2022-12-25T11:17:53.821Z,100921.50
2022-12-25T11:20:20.837Z,100917.25
2022-12-25T11:22:49.638Z,100910.16
2022-12-25T11:25:25.845Z,100903.06
2022-12-25T11:28:01.456Z,100899.66
2022-12-25T11:30:31.204Z,100897.84
2022-12-25T11:33:04.171Z,100896.97
2022-12-25T11:35:35.093Z,100890.44
2022-12-25T11:38:03.191Z,100870.47
2022-12-25T11:40:41.296Z,100868.16
2022-12-25T11:43:23.479Z,100862.63
2022-12-25T11:46:05.332Z,100856.16
2022-12-25T11:48:45.812Z,100852.06
2022-12-25T11:51:15.051Z,100857.84
2022-12-25T11:53:48.533Z,100859.06
2022-12-25T11:56:18.558Z,100856.09
2022-12-25T11:58:49.149Z,100854.13
2022-12-25T12:01:57.811Z,100861.25
2022-12-25T12:04:43.197Z,100867.78
2022-12-25T12:07:29.847Z,100854.00
2022-12-25T12:10:21.296Z,100851.47
2022-12-25T12:13:05.059Z,100845.22
2022-12-25T12:15:46.099Z,100850.00
2022-12-25T12:18:29.515Z,100848.31
2022-12-25T12:21:10.668Z,100839.25
2022-12-25T12:23:51.604Z,100844.22
2022-12-25T12:26:23.730Z,100838.56
2022-12-25T12:28:54.126Z,100841.69
2022-12-25T12:31:21.255Z,100833.75
2022-12-25T12:33:54.510Z,100835.41
2022-12-25T12:36:34.425Z,100831.63
2022-12-25T12:39:02.066Z,100833.47
2022-12-25T12:41:45.161Z,100832.78
2022-12-25T12:44:12.796Z,100828.47
2022-12-25T12:46:51.139Z,100823.38
2022-12-25T12:49:23.414Z,100819.13
2022-12-25T12:51:50.673Z,100818.66
2022-12-25T12:54:20.842Z,100811.03
2022-12-25T12:57:00.861Z,100817.50
2022-12-25T12:59:46.911Z,100819.94
2022-12-25T13:02:41.206Z,100811.56
2022-12-25T13:05:34.401Z,100814.41
2022-12-25T13:08:07.068Z,100812.78
2022-12-25T13:10:37.114Z,100806.81
2022-12-25T13:13:14.045Z,100806.94
2022-12-25T13:15:40.997Z,100803.94
2022-12-25T13:18:12.265Z,100790.88
2022-12-25T13:20:46.784Z,100791.34
2022-12-25T13:23:28.599Z,100795.28
2022-12-25T13:26:00.514Z,100783.78
2022-12-25T13:28:35.168Z,100788.34
2022-12-25T13:31:17.240Z,100778.56
2022-12-25T13:33:52.486Z,100777.34
2022-12-25T13:36:19.255Z,100783.06
2022-12-25T13:38:47.348Z,100775.41
2022-12-25T13:41:38.773Z,100770.97
2022-12-25T13:44:26.242Z,100762.88
2022-12-25T13:46:52.699Z,100751.13
2022-12-25T13:49:23.848Z,100756.66
2022-12-25T13:51:51.058Z,100749.88
2022-12-25T13:54:18.773Z,100756.66
2022-12-25T13:56:50.527Z,100759.63
2022-12-25T13:59:19.931Z,100759.34
2022-12-25T14:01:47.678Z,100752.19
2022-12-25T14:04:22.375Z,100748.78
2022-12-25T14:06:50.596Z,100743.09
2022-12-25T14:09:18.291Z,100746.81
2022-12-25T14:11:49.653Z,100748.19
2022-12-25T14:14:23.298Z,100739.25
2022-12-25T14:16:53.473Z,100748.34
2022-12-25T14:19:27.635Z,100747.09
2022-12-25T14:22:04.381Z,100739.13
2022-12-25T14:24:34.809Z,100735.78
2022-12-25T14:27:07.209Z,100735.47
2022-12-25T14:29:42.681Z,100734.50
2022-12-25T14:32:16.259Z,100733.66
2022-12-25T14:34:46.169Z,100750.28
2022-12-25T14:37:19.431Z,100753.44
2022-12-25T14:40:01.358Z,100749.19
2022-12-25T14:42:32.789Z,100748.44
2022-12-25T14:45:03.928Z,100749.25
2022-12-25T14:47:33.569Z,100747.31
2022-12-25T14:50:01.999Z,100749.50
2022-12-25T14:52:38.856Z,100747.31
2022-12-25T14:55:07.972Z,100753.00
2022-12-25T14:57:40.415Z,100746.91
2022-12-25T15:00:29.769Z,100746.03
2022-12-25T15:02:58.411Z,100751.72
2022-12-25T15:05:38.856Z,100760.50
2022-12-25T15:08:25.722Z,100748.19
2022-12-25T15:11:02.630Z,100752.72
2022-12-25T15:13:31.304Z,100752.28
2022-12-25T15:16:19.580Z,100753.47
2022-12-25T15:18:48.931Z,100753.66
2022-12-25T15:21:17.824Z,100753.81
2022-12-25T15:23:44.663Z,100750.56
2022-12-25T15:26:14.760Z,100750.56
2022-12-25T15:28:41.803Z,100749.97
2022-12-25T15:31:25.623Z,100740.72
2022-12-25T15:33:55.327Z,100734.81
2022-12-25T15:36:22.344Z,100743.56
2022-12-25T15:38:49.034Z,100733.94
2022-12-25T15:41:37.705Z,100725.66
2022-12-25T15:44:05.977Z,100723.41
2022-12-25T15:46:33.117Z,100726.94
2022-12-25T15:49:00.485Z,100727.31
2022-12-25T15:51:27.029Z,100715.19
2022-12-25T15:53:53.482Z,100699.53
2022-12-25T15:56:20.262Z,100694.72
2022-12-25T15:58:46.727Z,100698.25
2022-12-25T16:01:15.598Z,100691.56
2022-12-25T16:03:45.332Z,100687.88
2022-12-25T16:06:17.546Z,100687.63
2022-12-25T16:08:44.357Z,100678.56
2022-12-25T16:11:11.406Z,100678.25
2022-12-25T16:13:38.032Z,100678.69
2022-12-25T16:16:05.167Z,100676.72
2022-12-25T16:18:31.634Z,100675.94
2022-12-25T16:20:59.416Z,100674.78
2022-12-25T16:23:25.988Z,100677.41
2022-12-25T16:25:52.553Z,100689.41
2022-12-25T16:28:19.015Z,100694.03
2022-12-25T16:30:47.128Z,100700.09
2022-12-25T16:33:13.737Z,100707.00
2022-12-25T16:35:40.265Z,100706.88
2022-12-25T16:38:06.844Z,100700.47
2022-12-25T16:40:33.309Z,100709.41
2022-12-25T16:42:59.839Z,100702.56
2022-12-25T16:45:26.331Z,100702.00
2022-12-25T16:47:52.795Z,100691.22
2022-12-25T16:50:19.251Z,100690.38
2022-12-25T16:52:45.744Z,100682.47
2022-12-25T16:55:12.246Z,100667.63
2022-12-25T16:57:38.775Z,100667.16
2022-12-25T17:00:05.878Z,100660.44
2022-12-25T17:02:32.666Z,100653.22
2022-12-25T17:05:00.435Z,100657.56
2022-12-25T17:07:27.209Z,100667.16
2022-12-25T17:09:53.713Z,100655.53
2022-12-25T17:12:20.194Z,100653.00
2022-12-25T17:14:46.770Z,100660.25
2022-12-25T17:17:13.253Z,100663.06
2022-12-25T17:19:39.725Z,100677.25
2022-12-25T17:22:07.419Z,100681.63
2022-12-25T17:24:36.268Z,100676.59
2022-12-25T17:27:03.837Z,100673.59
2022-12-25T17:29:31.875Z,100675.44
2022-12-25T17:31:58.360Z,100680.31
2022-12-25T17:34:24.809Z,100680.47
2022-12-25T17:36:53.359Z,100683.31
2022-12-25T17:39:19.846Z,100673.41
2022-12-25T17:41:48.515Z,100676.91
2022-12-25T17:44:14.977Z,100669.38
2022-12-25T17:46:42.069Z,100669.38
2022-12-25T17:49:15.103Z,100668.84
2022-12-25T17:51:41.810Z,100666.31
2022-12-25T17:54:09.023Z,100667.84
2022-12-25T17:56:35.713Z,100684.00
2022-12-25T17:59:06.850Z,100690.38
2022-12-25T18:01:35.618Z,100679.59
2022-12-25T18:04:02.847Z,100687.69
2022-12-25T18:06:29.672Z,100677.94
2022-12-25T18:08:58.072Z,100677.78
2022-12-25T18:11:29.204Z,100669.69
2022-12-25T18:13:57.983Z,100673.84
2022-12-25T18:16:27.028Z,100668.31
2022-12-25T18:18:54.088Z,100661.41
2022-12-25T18:21:22.271Z,100655.38
2022-12-25T18:23:49.633Z,100659.78
2022-12-25T18:26:19.082Z,100650.69
2022-12-25T18:28:45.947Z,100660.06
2022-12-25T18:31:32.915Z,100658.72
2022-12-25T18:34:00.010Z,100659.56
2022-12-25T18:36:27.873Z,100683.25
2022-12-25T18:38:55.308Z,100679.72
2022-12-25T18:41:22.261Z,100678.16
2022-12-25T18:43:53.663Z,100672.00
2022-12-25T18:46:26.327Z,100675.56
2022-12-25T18:48:56.805Z,100686.50
2022-12-25T18:51:23.710Z,100684.78
2022-12-25T18:53:51.188Z,100685.94
2022-12-25T18:56:18.379Z,100696.63
2022-12-25T18:58:46.380Z,100685.00
2022-12-25T19:01:16.341Z,100681.47
2022-12-25T19:03:44.052Z,100673.56
2022-12-25T19:06:17.444Z,100678.41
2022-12-25T19:08:43.943Z,100684.78
2022-12-25T19:11:10.400Z,100677.25
2022-12-25T19:13:36.852Z,100666.03
2022-12-25T19:16:03.964Z,100676.56
2022-12-25T19:18:30.692Z,100672.56
2022-12-25T19:21:00.339Z,100680.19
2022-12-25T19:23:26.829Z,100664.63
2022-12-25T19:25:53.277Z,100651.16
2022-12-25T19:28:19.764Z,100641.56
2022-12-25T19:30:46.292Z,100634.03
2022-12-25T19:33:17.729Z,100651.34
2022-12-25T19:35:44.739Z,100656.56
2022-12-25T19:38:11.185Z,100646.47
2022-12-25T19:40:41.198Z,100649.31
2022-12-25T19:43:07.653Z,100654.88
2022-12-25T19:45:34.136Z,100653.84
2022-12-25T19:48:00.746Z,100669.03
2022-12-25T19:50:31.766Z,100675.00
2022-12-25T19:52:58.344Z,100673.47
2022-12-25T19:55:24.840Z,100672.41
2022-12-25T19:57:51.412Z,100677.56
2022-12-25T20:00:18.133Z,100688.66
2022-12-25T20:02:44.662Z,100690.00
2022-12-25T20:05:11.382Z,100689.03
2022-12-25T20:07:37.822Z,100692.72
2022-12-25T20:10:04.515Z,100694.72
2022-12-25T20:12:32.225Z,100694.41
2022-12-25T20:14:58.836Z,100703.00
2022-12-25T20:17:25.418Z,100696.81
2022-12-25T20:19:53.874Z,100697.09
2022-12-25T20:22:20.315Z,100703.47
2022-12-25T20:24:49.082Z,100693.72
2022-12-25T20:27:15.630Z,100689.72
2022-12-25T20:29:42.118Z,100693.63
2022-12-25T20:32:09.550Z,100699.50
2022-12-25T20:34:36.315Z,100688.00
2022-12-25T20:37:02.891Z,100689.72
2022-12-25T20:39:29.471Z,100696.63
2022-12-25T20:41:55.960Z,100690.25
2022-12-25T20:44:22.437Z,100692.09
2022-12-25T20:46:49.012Z,100686.56
2022-12-25T20:49:15.532Z,100694.72
2022-12-25T20:51:41.972Z,100693.00
2022-12-25T20:54:10.151Z,100695.00
2022-12-25T20:56:36.732Z,100707.31
2022-12-25T20:59:03.182Z,100708.00
2022-12-25T21:01:31.126Z,100702.03
2022-12-25T21:03:58.803Z,100691.81
2022-12-25T21:06:25.626Z,100703.19
2022-12-25T21:08:52.141Z,100702.31
2022-12-25T21:11:18.821Z,100698.19
2022-12-25T21:13:46.193Z,100705.69
2022-12-25T21:16:19.808Z,100707.72
2022-12-25T21:18:47.027Z,100710.69
2022-12-25T21:21:14.418Z,100706.72
2022-12-25T21:23:41.348Z,100717.25
2022-12-25T21:26:16.836Z,100727.88
2022-12-25T21:28:43.329Z,100713.25
2022-12-25T21:31:10.351Z,100729.94
2022-12-25T21:33:52.852Z,100742.72
2022-12-25T21:36:28.562Z,100740.88
2022-12-25T21:39:03.858Z,100745.97
2022-12-25T21:41:31.867Z,100743.56
2022-12-25T21:43:59.030Z,100743.19
2022-12-25T21:46:26.270Z,100751.94
2022-12-25T21:48:53.545Z,100753.66
2022-12-25T21:51:41.310Z,100753.19
2022-12-25T21:54:08.861Z,100753.66
2022-12-25T21:56:43.413Z,100756.03
2022-12-25T21:59:13.667Z,100742.56
2022-12-25T22:01:40.180Z,100750.78
2022-12-25T22:04:08.388Z,100755.19
2022-12-25T22:06:54.105Z,100756.72
2022-12-25T22:09:21.282Z,100760.00
2022-12-25T22:12:06.255Z,100761.44
2022-12-25T22:14:55.011Z,100758.19
2022-12-25T22:17:46.327Z,100764.41
2022-12-25T22:20:17.587Z,100770.03
2022-12-25T22:22:44.927Z,100765.50
2022-12-25T22:25:12.634Z,100763.78
2022-12-25T22:27:40.561Z,100761.09
2022-12-25T22:30:11.478Z,100768.75
2022-12-25T22:32:38.185Z,100765.31
2022-12-25T22:35:05.460Z,100771.88
2022-12-25T22:37:31.969Z,100757.72
2022-12-25T22:39:58.819Z,100755.41
2022-12-25T22:42:25.365Z,100745.97
2022-12-25T22:44:51.795Z,100734.72
2022-12-25T22:47:18.339Z,100745.88
2022-12-25T22:49:44.792Z,100732.88
2022-12-25T22:52:11.373Z,100733.47
2022-12-25T22:54:38.167Z,100741.03
2022-12-25T22:57:04.786Z,100733.00
2022-12-25T22:59:33.056Z,100741.63
2022-12-25T23:02:00.718Z,100733.72
2022-12-25T23:04:28.502Z,100732.19
2022-12-25T23:06:55.069Z,100735.88
2022-12-25T23:09:27.421Z,100734.88
2022-12-25T23:11:56.470Z,100739.88
2022-12-25T23:14:38.832Z,100752.50
2022-12-25T23:17:28.122Z,100744.41
2022-12-25T23:20:13.615Z,100743.19
2022-12-25T23:22:59.129Z,100744.41
2022-12-25T23:25:44.196Z,100742.25
2022-12-25T23:28:10.701Z,100721.41
2022-12-25T23:30:38.322Z,100722.31
2022-12-25T23:33:04.747Z,100740.00
2022-12-25T23:35:31.227Z,100734.81
2022-12-25T23:37:57.644Z,100740.63
2022-12-25T23:40:24.223Z,100744.72
2022-12-25T23:42:50.664Z,100751.03
2022-12-25T23:45:17.268Z,100752.03
2022-12-25T23:47:43.680Z,100747.78
2022-12-25T23:50:10.462Z,100764.41
2022-12-25T23:52:37.142Z,100776.47
2022-12-25T23:55:03.767Z,100774.03
2022-12-25T23:57:30.205Z,100775.88
2022-12-25T23:59:56.636Z,100775.03
